createdAt,value
2018-05-26T00:00:41.091Z,99.01
2018-05-26T00:01:41.030Z,98.86
2018-05-26T00:02:40.971Z,99.48
2018-05-26T00:03:40.907Z,98.96
2018-05-26T00:04:40.849Z,99.10
2018-05-26T00:05:40.787Z,98.52
2018-05-26T00:06:40.725Z,99.24
2018-05-26T00:07:40.665Z,99.43
2018-05-26T00:08:40.606Z,99.15
2018-05-26T00:09:40.544Z,99.72
2018-05-26T00:10:40.484Z,99.91
2018-05-26T00:11:40.423Z,99.34
2018-05-26T00:12:40.367Z,99.91
2018-05-26T00:13:40.303Z,99.34
2018-05-26T00:14:40.240Z,99.99
2018-05-26T00:15:40.181Z,99.99
2018-05-26T00:16:40.119Z,99.99
2018-05-26T00:17:40.057Z,99.99
2018-05-26T00:18:39.998Z,99.99
2018-05-26T00:19:39.938Z,99.99
2018-05-26T00:20:39.877Z,99.99
2018-05-26T00:21:39.816Z,99.53
2018-05-26T00:22:39.757Z,99.99
2018-05-26T00:23:39.691Z,99.99
2018-05-26T00:24:39.630Z,99.99
2018-05-26T00:25:39.583Z,99.99
2018-05-26T00:26:39.511Z,99.99
2018-05-26T00:27:39.451Z,99.99
2018-05-26T00:28:39.388Z,99.99
2018-05-26T00:29:39.327Z,99.91
2018-05-26T00:30:39.267Z,99.99
2018-05-26T00:31:39.208Z,99.91
2018-05-26T00:32:39.146Z,99.77
2018-05-26T00:33:39.084Z,99.29
2018-05-26T00:34:39.025Z,99.10
2018-05-26T00:35:38.962Z,99.29
2018-05-26T00:36:38.901Z,99.39
2018-05-26T00:37:38.843Z,99.96
2018-05-26T00:38:38.780Z,99.58
2018-05-26T00:39:38.723Z,99.99
2018-05-26T00:40:38.657Z,99.68
2018-05-26T00:41:38.597Z,98.86
2018-05-26T00:42:38.536Z,99.39
2018-05-26T00:43:38.475Z,99.77
2018-05-26T00:44:38.414Z,99.99
2018-05-26T00:45:38.353Z,99.99
2018-05-26T00:46:38.292Z,99.99
2018-05-26T00:47:38.230Z,99.99
2018-05-26T00:48:38.168Z,99.99
2018-05-26T00:49:38.108Z,99.99
2018-05-26T00:50:38.052Z,99.99
2018-05-26T00:51:37.986Z,99.99
2018-05-26T00:52:37.925Z,99.99
2018-05-26T00:53:37.863Z,99.99
2018-05-26T00:54:37.803Z,99.91
2018-05-26T00:55:37.742Z,99.99
2018-05-26T00:56:37.683Z,99.99
2018-05-26T00:57:37.620Z,99.99
2018-05-26T00:58:37.560Z,99.72
2018-05-26T00:59:37.500Z,99.99
2018-05-26T01:00:37.438Z,99.99
2018-05-26T01:01:37.376Z,99.72
2018-05-26T01:02:37.317Z,99.91
2018-05-26T01:03:37.256Z,99.91
2018-05-26T01:04:37.193Z,99.99
2018-05-26T01:05:37.132Z,99.99
2018-05-26T01:06:37.072Z,99.99
2018-05-26T01:07:37.009Z,99.99
2018-05-26T01:08:36.948Z,99.99
2018-05-26T01:09:36.887Z,99.99
2018-05-26T01:10:36.827Z,99.99
2018-05-26T01:11:36.764Z,99.99
2018-05-26T01:12:36.705Z,99.99
2018-05-26T01:13:36.645Z,99.99
2018-05-26T01:14:36.582Z,99.99
2018-05-26T01:15:36.521Z,99.99
2018-05-26T01:16:36.464Z,99.99
2018-05-26T01:17:36.399Z,99.99
2018-05-26T01:18:36.339Z,99.99
2018-05-26T01:19:36.276Z,99.99
2018-05-26T01:20:36.216Z,99.99
2018-05-26T01:21:36.156Z,99.99
2018-05-26T01:22:36.094Z,99.99
2018-05-26T01:23:36.032Z,99.99
2018-05-26T01:24:35.971Z,99.99
2018-05-26T01:25:35.911Z,99.99
2018-05-26T01:26:35.849Z,99.99
2018-05-26T01:27:35.783Z,99.99
2018-05-26T01:28:35.728Z,99.99
2018-05-26T01:29:35.666Z,99.99
2018-05-26T01:30:35.606Z,99.99
2018-05-26T01:31:35.542Z,99.99
2018-05-26T01:32:35.481Z,99.99
2018-05-26T01:33:35.421Z,99.99
2018-05-26T01:34:35.360Z,99.99
2018-05-26T01:35:35.298Z,99.99
2018-05-26T01:36:35.237Z,99.99
2018-05-26T01:37:35.176Z,99.99
2018-05-26T01:38:35.116Z,99.99
2018-05-26T01:39:35.053Z,99.99
2018-05-26T01:40:34.992Z,99.99
2018-05-26T01:41:34.931Z,99.99
2018-05-26T01:42:34.872Z,99.99
2018-05-26T01:43:34.806Z,99.99
2018-05-26T01:44:34.747Z,99.99
2018-05-26T01:45:34.687Z,99.99
2018-05-26T01:46:34.626Z,99.99
2018-05-26T01:47:34.567Z,99.99
2018-05-26T01:48:34.504Z,99.99
2018-05-26T01:49:34.442Z,99.99
2018-05-26T01:50:34.381Z,99.99
2018-05-26T01:51:34.319Z,99.99
2018-05-26T01:52:34.259Z,99.99
2018-05-26T01:53:34.200Z,99.99
2018-05-26T01:54:34.134Z,99.99
2018-05-26T01:55:34.072Z,99.99
2018-05-26T01:56:34.011Z,99.99
2018-05-26T01:57:33.951Z,99.99
2018-05-26T01:58:33.890Z,99.99
2018-05-26T01:59:33.827Z,99.99
2018-05-26T02:00:33.767Z,99.99
2018-05-26T02:01:33.705Z,99.99
2018-05-26T02:02:33.644Z,99.99
2018-05-26T02:03:33.581Z,99.99
2018-05-26T02:04:33.520Z,99.99
2018-05-26T02:05:33.460Z,99.99
2018-05-26T02:06:33.397Z,99.99
2018-05-26T02:07:33.337Z,99.99
2018-05-26T02:08:33.276Z,99.99
2018-05-26T02:09:33.214Z,99.99
2018-05-26T02:10:33.154Z,99.99
2018-05-26T02:11:33.090Z,99.99
2018-05-26T02:12:33.029Z,99.99
2018-05-26T02:13:32.969Z,99.99
2018-05-26T02:14:32.906Z,99.99
2018-05-26T02:15:32.845Z,99.99
2018-05-26T02:16:32.782Z,99.99
2018-05-26T02:17:32.721Z,99.99
2018-05-26T02:18:32.665Z,99.99
2018-05-26T02:19:32.597Z,99.99
2018-05-26T02:20:32.536Z,99.99
2018-05-26T02:21:32.476Z,99.99
2018-05-26T02:22:32.415Z,99.99
2018-05-26T02:23:32.356Z,99.99
2018-05-26T02:24:32.292Z,99.99
2018-05-26T02:25:32.230Z,99.99
2018-05-26T02:26:32.169Z,99.99
2018-05-26T02:27:32.109Z,99.99
2018-05-26T02:28:32.044Z,99.99
2018-05-26T02:29:31.985Z,99.99
2018-05-26T02:30:31.922Z,99.99
2018-05-26T02:31:31.860Z,99.99
2018-05-26T02:32:31.798Z,99.99
2018-05-26T02:33:31.737Z,99.99
2018-05-26T02:34:31.673Z,99.99
2018-05-26T02:35:31.614Z,99.99
2018-05-26T02:36:31.553Z,99.99
2018-05-26T02:37:31.492Z,99.99
2018-05-26T02:38:31.436Z,99.99
2018-05-26T02:39:31.366Z,99.99
2018-05-26T02:40:31.306Z,99.99
2018-05-26T02:41:31.245Z,99.99
2018-05-26T02:42:31.182Z,99.99
2018-05-26T02:43:31.120Z,99.99
2018-05-26T02:44:31.059Z,99.99
2018-05-26T02:45:30.999Z,99.99
2018-05-26T02:46:30.937Z,99.99
2018-05-26T02:47:30.876Z,99.99
2018-05-26T02:48:30.816Z,99.99
2018-05-26T02:49:30.750Z,99.99
2018-05-26T02:50:30.691Z,99.99
2018-05-26T02:51:30.631Z,99.99
2018-05-26T02:52:30.571Z,99.99
2018-05-26T02:53:30.505Z,99.99
2018-05-26T02:54:30.447Z,99.99
2018-05-26T02:55:30.383Z,99.99
2018-05-26T02:56:30.318Z,99.99
2018-05-26T02:57:30.258Z,99.99
2018-05-26T02:58:30.196Z,99.99
2018-05-26T02:59:30.138Z,99.99
2018-05-26T03:00:30.073Z,99.99
2018-05-26T03:01:30.012Z,99.99
2018-05-26T03:02:29.950Z,99.99
2018-05-26T03:03:29.887Z,99.99
2018-05-26T03:04:29.825Z,99.99
2018-05-26T03:05:29.768Z,99.99
2018-05-26T03:06:29.702Z,99.99
2018-05-26T03:07:29.642Z,99.99
2018-05-26T03:08:29.583Z,99.99
2018-05-26T03:09:29.523Z,99.99
2018-05-26T03:10:29.455Z,99.99
2018-05-26T03:11:29.393Z,99.99
2018-05-26T03:12:29.331Z,99.99
2018-05-26T03:13:29.270Z,99.99
2018-05-26T03:14:29.207Z,99.99
2018-05-26T03:15:29.146Z,99.99
2018-05-26T03:16:29.134Z,99.99
2018-05-26T03:17:29.022Z,99.99
2018-05-26T03:18:28.960Z,99.99
2018-05-26T03:19:28.898Z,99.99
2018-05-26T03:20:28.835Z,99.99
2018-05-26T03:21:28.777Z,99.99
2018-05-26T03:22:28.761Z,99.99
2018-05-26T03:23:28.651Z,99.99
2018-05-26T03:24:28.595Z,99.99
2018-05-26T03:25:28.527Z,99.99
2018-05-26T03:26:28.466Z,99.99
2018-05-26T03:27:28.403Z,99.99
2018-05-26T03:28:28.344Z,99.99
2018-05-26T03:29:28.281Z,99.99
2018-05-26T03:30:28.219Z,99.99
2018-05-26T03:31:28.155Z,99.99
2018-05-26T03:32:28.094Z,99.99
2018-05-26T03:33:28.032Z,99.99
2018-05-26T03:34:27.972Z,99.99
2018-05-26T03:35:27.908Z,99.99
2018-05-26T03:36:27.849Z,99.99
2018-05-26T03:37:27.784Z,99.99
2018-05-26T03:38:27.722Z,99.99
2018-05-26T03:39:27.660Z,99.99
2018-05-26T03:40:27.600Z,99.99
2018-05-26T03:41:27.536Z,99.99
2018-05-26T03:42:27.476Z,99.99
2018-05-26T03:43:27.413Z,99.99
2018-05-26T03:44:27.351Z,99.99
2018-05-26T03:45:27.290Z,99.99
2018-05-26T03:46:27.228Z,99.99
2018-05-26T03:47:27.164Z,99.99
2018-05-26T03:48:27.104Z,99.99
2018-05-26T03:49:27.041Z,99.99
2018-05-26T03:50:26.978Z,99.99
2018-05-26T03:51:26.920Z,99.99
2018-05-26T03:52:26.857Z,99.99
2018-05-26T03:53:26.795Z,99.99
2018-05-26T03:54:26.733Z,99.99
2018-05-26T03:55:26.671Z,99.99
2018-05-26T03:56:26.608Z,99.99
2018-05-26T03:57:26.547Z,99.99
2018-05-26T03:58:26.488Z,99.99
2018-05-26T03:59:26.420Z,99.99
2018-05-26T04:00:26.374Z,99.99
2018-05-26T04:01:26.299Z,99.99
2018-05-26T04:02:26.237Z,99.99
2018-05-26T04:03:26.176Z,99.99
2018-05-26T04:04:26.116Z,99.99
2018-05-26T04:05:26.058Z,99.99
2018-05-26T04:06:25.990Z,99.99
2018-05-26T04:07:25.932Z,99.99
2018-05-26T04:08:25.867Z,99.99
2018-05-26T04:09:25.804Z,99.99
2018-05-26T04:10:25.743Z,99.99
2018-05-26T04:11:25.712Z,99.99
2018-05-26T04:12:25.618Z,99.99
2018-05-26T04:13:25.553Z,99.99
2018-05-26T04:14:25.510Z,99.99
2018-05-26T04:15:25.433Z,99.99
2018-05-26T04:16:25.369Z,99.99
2018-05-26T04:17:25.308Z,99.99
2018-05-26T04:18:25.258Z,99.99
2018-05-26T04:19:25.186Z,99.99
2018-05-26T04:20:25.124Z,99.99
2018-05-26T04:21:25.087Z,99.99
2018-05-26T04:22:25.039Z,99.99
2018-05-26T04:23:25.026Z,99.99
2018-05-26T04:24:24.875Z,99.99
2018-05-26T04:25:24.815Z,99.99
2018-05-26T04:26:24.751Z,99.99
2018-05-26T04:27:24.688Z,99.99
2018-05-26T04:28:24.629Z,99.99
2018-05-26T04:29:24.565Z,99.99
2018-05-26T04:30:24.508Z,99.99
2018-05-26T04:31:24.441Z,99.99
2018-05-26T04:32:24.378Z,99.99
2018-05-26T04:33:24.317Z,99.99
2018-05-26T04:34:24.255Z,99.99
2018-05-26T04:35:24.198Z,99.99
2018-05-26T04:36:24.131Z,99.99
2018-05-26T04:37:24.070Z,99.99
2018-05-26T04:38:24.012Z,99.99
2018-05-26T04:39:23.944Z,99.99
2018-05-26T04:40:23.883Z,99.99
2018-05-26T04:41:23.823Z,99.99
2018-05-26T04:42:23.761Z,99.99
2018-05-26T04:43:23.698Z,99.99
2018-05-26T04:44:23.637Z,99.99
2018-05-26T04:45:23.578Z,99.99
2018-05-26T04:46:23.513Z,99.99
2018-05-26T04:47:23.452Z,99.99
2018-05-26T04:48:23.391Z,99.99
2018-05-26T04:49:23.328Z,99.99
2018-05-26T04:50:23.270Z,99.99
2018-05-26T04:51:23.206Z,99.99
2018-05-26T04:52:23.144Z,99.99
2018-05-26T04:53:23.084Z,99.99
2018-05-26T04:54:23.022Z,99.99
2018-05-26T04:55:22.958Z,99.99
2018-05-26T04:56:22.899Z,99.99
2018-05-26T04:57:22.836Z,99.99
2018-05-26T04:58:22.774Z,99.99
2018-05-26T04:59:22.712Z,99.99
2018-05-26T05:00:22.651Z,99.99
2018-05-26T05:01:22.590Z,99.99
2018-05-26T05:02:22.529Z,99.99
2018-05-26T05:03:22.467Z,99.99
2018-05-26T05:04:22.407Z,99.99
2018-05-26T05:05:22.343Z,99.99
2018-05-26T05:06:22.283Z,99.99
2018-05-26T05:07:22.224Z,99.99
2018-05-26T05:08:22.158Z,99.99
2018-05-26T05:09:22.098Z,99.99
2018-05-26T05:10:22.038Z,99.99
2018-05-26T05:11:21.976Z,99.99
2018-05-26T05:12:21.920Z,99.99
2018-05-26T05:13:21.855Z,99.99
2018-05-26T05:14:21.798Z,99.99
2018-05-26T05:15:21.729Z,99.99
2018-05-26T05:16:21.668Z,99.99
2018-05-26T05:17:21.609Z,99.99
2018-05-26T05:18:21.548Z,99.99
2018-05-26T05:19:21.486Z,99.99
2018-05-26T05:20:21.425Z,99.99
2018-05-26T05:21:21.364Z,99.99
2018-05-26T05:22:21.301Z,99.99
2018-05-26T05:23:21.240Z,99.72
2018-05-26T05:24:21.180Z,99.29
2018-05-26T05:25:21.119Z,99.29
2018-05-26T05:26:21.058Z,99.19
2018-05-26T05:27:20.997Z,99.19
2018-05-26T05:28:20.934Z,99.48
2018-05-26T05:29:20.874Z,98.81
2018-05-26T05:30:20.812Z,99.10
2018-05-26T05:31:20.750Z,99.01
2018-05-26T05:32:20.690Z,98.62
2018-05-26T05:33:20.629Z,98.43
2018-05-26T05:34:20.573Z,98.52
2018-05-26T05:35:20.506Z,98.24
2018-05-26T05:36:20.446Z,98.43
2018-05-26T05:37:20.386Z,97.95
2018-05-26T05:38:20.326Z,98.28
2018-05-26T05:39:20.264Z,98.00
2018-05-26T05:40:20.202Z,97.23
2018-05-26T05:41:20.141Z,96.66
2018-05-26T05:42:20.083Z,96.85
2018-05-26T05:43:20.020Z,96.27
2018-05-26T05:44:19.962Z,95.89
2018-05-26T05:45:19.901Z,96.08
2018-05-26T05:46:19.838Z,95.70
2018-05-26T05:47:19.775Z,96.27
2018-05-26T05:48:19.716Z,95.03
2018-05-26T05:49:19.655Z,95.07
2018-05-26T05:50:19.595Z,95.31
2018-05-26T05:51:19.537Z,95.46
2018-05-26T05:52:19.513Z,95.55
2018-05-26T05:53:19.415Z,95.36
2018-05-26T05:54:19.353Z,95.07
2018-05-26T05:55:19.291Z,95.07
2018-05-26T05:56:19.257Z,95.36
2018-05-26T05:57:19.168Z,94.79
2018-05-26T05:58:19.109Z,93.35
2018-05-26T05:59:19.046Z,93.92
2018-05-26T06:00:18.993Z,93.54
2018-05-26T06:01:18.928Z,93.63
2018-05-26T06:02:18.868Z,93.15
2018-05-26T06:03:18.805Z,93.63
2018-05-26T06:04:18.746Z,93.77
2018-05-26T06:05:18.683Z,92.72
2018-05-26T06:06:18.626Z,93.10
2018-05-26T06:07:18.565Z,93.87
2018-05-26T06:08:18.504Z,93.20
2018-05-26T06:09:18.442Z,92.91
2018-05-26T06:10:18.383Z,92.05
2018-05-26T06:11:18.321Z,92.63
2018-05-26T06:12:18.263Z,92.05
2018-05-26T06:13:18.203Z,92.91
2018-05-26T06:14:18.143Z,92.05
2018-05-26T06:15:18.084Z,92.10
2018-05-26T06:16:18.021Z,91.71
2018-05-26T06:17:17.961Z,91.52
2018-05-26T06:18:17.902Z,91.42
2018-05-26T06:19:17.842Z,90.66
2018-05-26T06:20:17.780Z,90.75
2018-05-26T06:21:17.718Z,90.66
2018-05-26T06:22:17.660Z,90.66
2018-05-26T06:23:17.598Z,90.08
2018-05-26T06:24:17.541Z,89.89
2018-05-26T06:25:17.478Z,89.60
2018-05-26T06:26:17.420Z,90.27
2018-05-26T06:27:17.358Z,89.98
2018-05-26T06:28:17.299Z,89.60
2018-05-26T06:29:17.239Z,90.17
2018-05-26T06:30:17.178Z,89.50
2018-05-26T06:31:17.117Z,89.22
2018-05-26T06:32:17.059Z,89.02
2018-05-26T06:33:16.998Z,89.64
2018-05-26T06:34:16.942Z,89.64
2018-05-26T06:35:16.878Z,89.07
2018-05-26T06:36:16.819Z,89.54
2018-05-26T06:37:16.760Z,89.69
2018-05-26T06:38:16.699Z,90.60
2018-05-26T06:39:16.638Z,89.54
2018-05-26T06:40:16.580Z,89.26
2018-05-26T06:41:16.526Z,89.64
2018-05-26T06:42:16.464Z,89.45
2018-05-26T06:43:16.400Z,89.26
2018-05-26T06:44:16.341Z,89.07
2018-05-26T06:45:16.291Z,89.16
2018-05-26T06:46:16.221Z,88.49
2018-05-26T06:47:16.160Z,88.10
2018-05-26T06:48:16.101Z,87.15
2018-05-26T06:49:16.044Z,87.62
2018-05-26T06:50:15.983Z,87.05
2018-05-26T06:51:15.965Z,87.24
2018-05-26T06:52:15.867Z,87.53
2018-05-26T06:53:15.803Z,87.15
2018-05-26T06:54:15.746Z,87.34
2018-05-26T06:55:15.684Z,87.34
2018-05-26T06:56:15.628Z,87.62
2018-05-26T06:57:15.568Z,88.01
2018-05-26T06:58:15.505Z,88.10
2018-05-26T06:59:15.447Z,88.59
2018-05-26T07:00:15.389Z,88.30
2018-05-26T07:01:15.329Z,88.39
2018-05-26T07:02:15.271Z,88.20
2018-05-26T07:03:15.211Z,88.10
2018-05-26T07:04:15.149Z,88.59
2018-05-26T07:05:15.092Z,88.97
2018-05-26T07:06:15.032Z,88.01
2018-05-26T07:07:14.970Z,87.53
2018-05-26T07:08:14.912Z,87.15
2018-05-26T07:09:14.853Z,86.76
2018-05-26T07:10:14.795Z,87.57
2018-05-26T07:11:14.733Z,87.72
2018-05-26T07:12:14.674Z,88.20
2018-05-26T07:13:14.613Z,88.39
2018-05-26T07:14:14.555Z,87.15
2018-05-26T07:15:14.495Z,87.82
2018-05-26T07:16:14.436Z,88.10
2018-05-26T07:17:14.376Z,88.20
2018-05-26T07:18:14.317Z,88.49
2018-05-26T07:19:14.257Z,88.78
2018-05-26T07:20:14.198Z,87.67
2018-05-26T07:21:14.139Z,88.15
2018-05-26T07:22:14.081Z,87.86
2018-05-26T07:23:14.020Z,87.19
2018-05-26T07:24:13.963Z,86.90
2018-05-26T07:25:13.900Z,86.52
2018-05-26T07:26:13.844Z,85.84
2018-05-26T07:27:13.783Z,85.65
2018-05-26T07:28:13.727Z,85.65
2018-05-26T07:29:13.665Z,85.46
2018-05-26T07:30:13.609Z,85.75
2018-05-26T07:31:13.551Z,86.04
2018-05-26T07:32:13.491Z,86.61
2018-05-26T07:33:13.432Z,86.13
2018-05-26T07:34:13.368Z,85.27
2018-05-26T07:35:13.307Z,84.88
2018-05-26T07:36:13.252Z,85.46
2018-05-26T07:37:13.192Z,85.21
2018-05-26T07:38:13.131Z,85.78
2018-05-26T07:39:13.070Z,85.21
2018-05-26T07:40:13.014Z,85.21
2018-05-26T07:41:12.955Z,84.83
2018-05-26T07:42:12.895Z,83.23
2018-05-26T07:43:12.841Z,82.85
2018-05-26T07:44:12.776Z,82.56
2018-05-26T07:45:12.717Z,82.65
2018-05-26T07:46:12.659Z,82.17
2018-05-26T07:47:12.630Z,82.17
2018-05-26T07:48:12.539Z,81.98
2018-05-26T07:49:12.481Z,81.06
2018-05-26T07:50:12.422Z,80.87
2018-05-26T07:51:12.369Z,81.16
2018-05-26T07:52:12.307Z,80.19
2018-05-26T07:53:12.299Z,79.52
2018-05-26T07:54:12.187Z,79.61
2018-05-26T07:55:12.151Z,79.61
2018-05-26T07:56:12.069Z,78.79
2018-05-26T07:57:12.043Z,80.04
2018-05-26T07:58:11.953Z,78.98
2018-05-26T07:59:11.925Z,79.66
2018-05-26T08:00:11.839Z,78.08
2018-05-26T08:01:11.777Z,78.94
2018-05-26T08:02:11.716Z,78.94
2018-05-26T08:03:11.658Z,78.75
2018-05-26T08:04:11.600Z,77.59
2018-05-26T08:05:11.541Z,78.65
2018-05-26T08:06:11.490Z,78.65
2018-05-26T08:07:11.424Z,78.27
2018-05-26T08:08:11.364Z,78.56
2018-05-26T08:09:11.306Z,78.75
2018-05-26T08:10:11.249Z,80.38
2018-05-26T08:11:11.188Z,80.58
2018-05-26T08:12:11.130Z,80.00
2018-05-26T08:13:11.071Z,79.23
2018-05-26T08:14:11.016Z,79.36
2018-05-26T08:15:10.955Z,79.13
2018-05-26T08:16:10.897Z,78.69
2018-05-26T08:17:10.866Z,78.98
2018-05-26T08:18:10.783Z,79.94
2018-05-26T08:19:10.724Z,80.43
2018-05-26T08:20:10.666Z,78.88
2018-05-26T08:21:10.605Z,77.44
2018-05-26T08:22:10.547Z,76.32
2018-05-26T08:23:10.490Z,76.23
2018-05-26T08:24:10.433Z,75.55
2018-05-26T08:25:10.373Z,75.59
2018-05-26T08:26:10.314Z,76.26
2018-05-26T08:27:10.273Z,76.17
2018-05-26T08:28:10.200Z,76.07
2018-05-26T08:29:10.141Z,77.23
2018-05-26T08:30:10.085Z,77.86
2018-05-26T08:31:10.025Z,77.67
2018-05-26T08:32:09.967Z,77.51
2018-05-26T08:33:09.908Z,75.68
2018-05-26T08:34:09.852Z,75.49
2018-05-26T08:35:09.793Z,76.36
2018-05-26T08:36:09.740Z,77.33
2018-05-26T08:37:09.680Z,78.58
2018-05-26T08:38:09.623Z,78.09
2018-05-26T08:39:09.561Z,79.16
2018-05-26T08:40:09.504Z,80.18
2018-05-26T08:41:09.447Z,79.69
2018-05-26T08:42:09.389Z,80.08
2018-05-26T08:43:09.331Z,80.18
2018-05-26T08:44:09.278Z,80.66
2018-05-26T08:45:09.217Z,80.66
2018-05-26T08:46:09.159Z,80.99
2018-05-26T08:47:09.101Z,80.94
2018-05-26T08:48:09.044Z,79.83
2018-05-26T08:49:08.987Z,79.06
2018-05-26T08:50:08.928Z,79.74
2018-05-26T08:51:08.910Z,79.35
2018-05-26T08:52:08.813Z,79.54
2018-05-26T08:53:08.756Z,79.35
2018-05-26T08:54:08.700Z,78.86
2018-05-26T08:55:08.640Z,80.02
2018-05-26T08:56:08.583Z,79.25
2018-05-26T08:57:08.531Z,78.29
2018-05-26T08:58:08.469Z,78.91
2018-05-26T08:59:08.410Z,78.33
2018-05-26T09:00:08.361Z,77.94
2018-05-26T09:01:08.305Z,78.33
2018-05-26T09:02:08.239Z,79.29
2018-05-26T09:03:08.181Z,79.29
2018-05-26T09:04:08.124Z,79.00
2018-05-26T09:05:08.068Z,78.91
2018-05-26T09:06:08.010Z,78.52
2018-05-26T09:07:07.952Z,79.10
2018-05-26T09:08:07.893Z,78.75
2018-05-26T09:09:07.838Z,77.78
2018-05-26T09:10:07.782Z,77.98
2018-05-26T09:11:07.722Z,78.17
2018-05-26T09:12:07.665Z,76.76
2018-05-26T09:13:07.608Z,75.70
2018-05-26T09:14:07.555Z,75.64
2018-05-26T09:15:07.493Z,73.71
2018-05-26T09:16:07.437Z,73.84
2018-05-26T09:17:07.379Z,72.30
2018-05-26T09:18:07.322Z,72.81
2018-05-26T09:19:07.266Z,72.04
2018-05-26T09:20:07.209Z,71.84
2018-05-26T09:21:07.158Z,70.82
2018-05-26T09:22:07.097Z,69.89
2018-05-26T09:23:07.039Z,67.88
2018-05-26T09:24:06.983Z,66.02
2018-05-26T09:25:06.996Z,64.78
2018-05-26T09:26:06.872Z,63.17
2018-05-26T09:27:06.818Z,62.23
2018-05-26T09:28:06.760Z,61.00
2018-05-26T09:29:06.706Z,59.86
2018-05-26T09:30:06.650Z,58.98
2018-05-26T09:31:06.595Z,57.65
2018-05-26T09:32:06.541Z,57.29
2018-05-26T09:33:06.489Z,56.64
2018-05-26T09:34:06.435Z,55.66
2018-05-26T09:35:06.379Z,55.66
2018-05-26T09:36:06.327Z,55.47
2018-05-26T09:37:06.273Z,54.62
2018-05-26T09:38:06.221Z,53.80
2018-05-26T09:39:06.169Z,51.95
2018-05-26T09:40:06.168Z,52.24
2018-05-26T09:41:06.066Z,52.17
2018-05-26T09:42:06.013Z,52.83
2018-05-26T09:43:05.958Z,52.26
2018-05-26T09:44:05.911Z,51.58
2018-05-26T09:45:05.858Z,51.48
2018-05-26T09:46:05.809Z,51.87
2018-05-26T09:47:05.757Z,51.58
2018-05-26T09:48:05.708Z,51.75
2018-05-26T09:49:05.656Z,51.56
2018-05-26T09:50:05.605Z,52.44
2018-05-26T09:51:05.556Z,52.40
2018-05-26T09:52:05.504Z,50.46
2018-05-26T09:53:05.456Z,50.65
2018-05-26T09:54:05.409Z,51.21
2018-05-26T09:55:05.358Z,51.39
2018-05-26T09:56:05.362Z,48.78
2018-05-26T09:57:05.259Z,47.52
2018-05-26T09:58:05.211Z,46.56
2018-05-26T09:59:05.161Z,46.30
2018-05-26T10:00:05.109Z,45.15
2018-05-26T10:01:05.062Z,44.29
2018-05-26T10:02:05.012Z,44.12
2018-05-26T10:03:04.963Z,44.21
2018-05-26T10:04:04.914Z,44.48
2018-05-26T10:05:04.866Z,44.46
2018-05-26T10:06:04.818Z,44.54
2018-05-26T10:07:04.774Z,44.98
2018-05-26T10:08:04.722Z,47.03
2018-05-26T10:09:04.672Z,47.32
2018-05-26T10:10:04.623Z,47.22
2018-05-26T10:11:04.577Z,47.42
2018-05-26T10:12:04.526Z,46.54
2018-05-26T10:13:04.477Z,47.22
2018-05-26T10:14:04.431Z,47.13
2018-05-26T10:15:04.380Z,47.05
2018-05-26T10:16:04.331Z,46.08
2018-05-26T10:17:04.288Z,46.64
2018-05-26T10:18:04.235Z,46.34
2018-05-26T10:19:04.185Z,45.88
2018-05-26T10:20:04.137Z,46.66
2018-05-26T10:21:04.092Z,47.25
2018-05-26T10:22:04.040Z,46.88
2018-05-26T10:23:03.991Z,46.59
2018-05-26T10:24:03.941Z,46.69
2018-05-26T10:25:03.893Z,45.86
2018-05-26T10:26:03.846Z,46.34
2018-05-26T10:27:03.795Z,47.03
2018-05-26T10:28:03.746Z,45.68
2018-05-26T10:29:03.697Z,46.17
2018-05-26T10:30:03.661Z,45.61
2018-05-26T10:31:03.599Z,47.13
2018-05-26T10:32:03.552Z,48.00
2018-05-26T10:33:03.500Z,48.95
2018-05-26T10:34:03.454Z,49.99
2018-05-26T10:35:03.401Z,50.87
2018-05-26T10:36:03.364Z,49.41
2018-05-26T10:37:03.304Z,48.93
2018-05-26T10:38:03.264Z,47.88
2018-05-26T10:39:03.203Z,48.88
2018-05-26T10:40:03.160Z,47.05
2018-05-26T10:41:03.105Z,47.22
2018-05-26T10:42:03.064Z,47.52
2018-05-26T10:43:03.005Z,46.27
2018-05-26T10:44:02.957Z,46.76
2018-05-26T10:45:02.907Z,46.83
2018-05-26T10:46:02.859Z,46.15
2018-05-26T10:47:02.804Z,45.98
2018-05-26T10:48:02.755Z,46.08
2018-05-26T10:49:02.706Z,46.17
2018-05-26T10:50:02.676Z,46.05
2018-05-26T10:51:02.606Z,46.15
2018-05-26T10:52:02.556Z,47.59
2018-05-26T10:53:02.507Z,49.07
2018-05-26T10:54:02.459Z,48.93
2018-05-26T10:55:02.407Z,49.90
2018-05-26T10:56:02.357Z,49.80
2018-05-26T10:57:02.308Z,49.22
2018-05-26T10:58:02.257Z,50.09
2018-05-26T10:59:02.207Z,49.80
2018-05-26T11:00:02.158Z,51.33
2018-05-26T11:01:02.109Z,52.25
2018-05-26T11:02:02.057Z,54.27
2018-05-26T11:03:02.004Z,52.84
2018-05-26T11:04:01.953Z,53.49
2018-05-26T11:05:01.905Z,52.20
2018-05-26T11:06:01.853Z,53.92
2018-05-26T11:07:01.804Z,53.15
2018-05-26T11:08:01.751Z,52.73
2018-05-26T11:09:01.699Z,54.28
2018-05-26T11:10:01.649Z,54.58
2018-05-26T11:11:01.596Z,54.26
2018-05-26T11:12:01.543Z,54.06
2018-05-26T11:13:01.491Z,52.51
2018-05-26T11:14:01.437Z,52.90
2018-05-26T11:15:01.387Z,52.80
2018-05-26T11:16:01.336Z,51.74
2018-05-26T11:17:01.281Z,52.54
2018-05-26T11:18:01.482Z,50.41
2018-05-26T11:19:01.233Z,50.41
2018-05-26T11:20:01.119Z,51.40
2018-05-26T11:21:01.068Z,48.47
2018-05-26T11:22:01.016Z,50.02
2018-05-26T11:23:00.960Z,50.89
2018-05-26T11:24:01.132Z,50.41
2018-05-26T11:25:00.853Z,48.76
2018-05-26T11:26:00.871Z,50.31
2018-05-26T11:27:00.746Z,50.60
2018-05-26T11:28:00.692Z,52.06
2018-05-26T11:29:00.680Z,51.74
2018-05-26T11:30:00.584Z,51.64
2018-05-26T11:31:00.591Z,49.82
2018-05-26T11:32:00.477Z,49.63
2018-05-26T11:33:00.421Z,49.63
2018-05-26T11:34:00.366Z,51.28
2018-05-26T11:35:00.313Z,52.54
2018-05-26T11:36:00.258Z,50.60
2018-05-26T11:37:00.206Z,49.61
2018-05-26T11:38:00.150Z,51.28
2018-05-26T11:39:00.097Z,49.73
2018-05-26T11:40:00.041Z,50.31
2018-05-26T11:40:59.985Z,49.92
2018-05-26T11:41:59.937Z,50.87
2018-05-26T11:42:59.875Z,51.18
2018-05-26T11:43:59.822Z,52.44
2018-05-26T11:44:59.769Z,53.22
2018-05-26T11:45:59.715Z,51.86
2018-05-26T11:46:59.657Z,51.37
2018-05-26T11:47:59.606Z,51.37
2018-05-26T11:48:59.547Z,52.42
2018-05-26T11:49:59.496Z,51.93
2018-05-26T11:50:59.439Z,50.99
2018-05-26T11:51:59.385Z,50.70
2018-05-26T11:52:59.329Z,50.50
2018-05-26T11:53:59.273Z,50.02
2018-05-26T11:54:59.219Z,50.62
2018-05-26T11:55:59.166Z,52.08
2018-05-26T11:56:59.111Z,52.11
2018-05-26T11:57:59.055Z,51.11
2018-05-26T11:58:58.998Z,51.31
2018-05-26T11:59:58.948Z,49.15
2018-05-26T12:00:58.891Z,49.07
2018-05-26T12:01:58.867Z,48.88
2018-05-26T12:02:58.781Z,49.46
2018-05-26T12:03:58.727Z,51.98
2018-05-26T12:04:58.677Z,52.95
2018-05-26T12:05:58.617Z,52.66
2018-05-26T12:06:58.561Z,51.69
2018-05-26T12:07:58.506Z,51.98
2018-05-26T12:08:58.451Z,51.89
2018-05-26T12:09:58.399Z,51.98
2018-05-26T12:10:58.341Z,52.76
2018-05-26T12:11:58.290Z,53.53
2018-05-26T12:12:58.234Z,52.66
2018-05-26T12:13:58.177Z,51.98
2018-05-26T12:14:58.122Z,52.76
2018-05-26T12:15:58.066Z,53.34
2018-05-26T12:16:58.012Z,54.19
2018-05-26T12:17:57.960Z,53.89
2018-05-26T12:18:57.900Z,55.64
2018-05-26T12:19:57.846Z,55.06
2018-05-26T12:20:57.792Z,54.84
2018-05-26T12:21:57.739Z,54.06
2018-05-26T12:22:57.682Z,53.29
2018-05-26T12:23:57.628Z,54.06
2018-05-26T12:24:57.572Z,55.32
2018-05-26T12:25:57.519Z,54.28
2018-05-26T12:26:57.576Z,54.09
2018-05-26T12:27:57.406Z,53.80
2018-05-26T12:28:57.355Z,53.02
2018-05-26T12:29:57.295Z,54.09
2018-05-26T12:30:57.241Z,54.28
2018-05-26T12:31:57.187Z,53.31
2018-05-26T12:32:57.129Z,54.67
2018-05-26T12:33:57.078Z,53.61
2018-05-26T12:34:57.019Z,54.28
2018-05-26T12:35:56.965Z,53.51
2018-05-26T12:36:56.909Z,53.80
2018-05-26T12:37:56.857Z,54.67
2018-05-26T12:38:56.802Z,51.18
2018-05-26T12:39:56.743Z,51.86
2018-05-26T12:40:56.691Z,51.79
2018-05-26T12:41:56.634Z,51.69
2018-05-26T12:42:56.578Z,52.76
2018-05-26T12:43:56.522Z,52.66
2018-05-26T12:44:56.469Z,52.86
2018-05-26T12:45:56.413Z,52.06
2018-05-26T12:46:56.358Z,49.82
2018-05-26T12:47:56.302Z,51.37
2018-05-26T12:48:56.251Z,51.21
2018-05-26T12:49:56.195Z,51.40
2018-05-26T12:50:56.137Z,50.34
2018-05-26T12:51:56.083Z,49.37